createdAt,value
2023-05-03T00:00:08.631Z,12.10
2023-05-03T00:02:40.272Z,12.10
2023-05-03T00:05:15.156Z,12.10
2023-05-03T00:07:45.229Z,12.00
2023-05-03T00:10:15.908Z,12.00
2023-05-03T00:12:45.514Z,12.00
2023-05-03T00:15:13.593Z,11.90
2023-05-03T00:17:43.095Z,11.90
2023-05-03T00:20:12.821Z,11.90
2023-05-03T00:22:40.884Z,11.80
2023-05-03T00:25:10.401Z,11.80
2023-05-03T00:27:38.498Z,11.80
2023-05-03T00:30:07.907Z,11.70
2023-05-03T00:32:37.796Z,11.70
2023-05-03T00:35:08.953Z,11.70
2023-05-03T00:37:38.134Z,11.70
2023-05-03T00:40:08.904Z,11.60
2023-05-03T00:42:37.686Z,11.60
2023-05-03T00:45:07.387Z,11.60
2023-05-03T00:47:35.806Z,11.60
2023-05-03T00:50:05.336Z,11.50
2023-05-03T00:52:36.067Z,11.50
2023-05-03T00:55:05.209Z,11.40
2023-05-03T00:57:33.362Z,11.40
2023-05-03T01:00:01.826Z,11.40
2023-05-03T01:02:30.300Z,11.40
2023-05-03T01:04:58.581Z,11.30
2023-05-03T01:07:41.120Z,11.30
2023-05-03T01:10:19.335Z,11.20
2023-05-03T01:12:56.400Z,11.30
2023-05-03T01:15:38.326Z,11.20
2023-05-03T01:18:18.664Z,11.10
2023-05-03T01:20:50.017Z,11.10
2023-05-03T01:23:36.437Z,11.10
2023-05-03T01:26:20.616Z,11.10
2023-05-03T01:28:48.615Z,11.00
2023-05-03T01:31:24.186Z,11.00
2023-05-03T01:34:04.977Z,10.90
2023-05-03T01:36:34.739Z,10.90
2023-05-03T01:39:09.528Z,10.90
2023-05-03T01:41:42.981Z,10.90
2023-05-03T01:44:11.587Z,10.80
2023-05-03T01:46:45.013Z,10.80
2023-05-03T01:49:13.818Z,10.80
2023-05-03T01:51:42.003Z,10.70
2023-05-03T01:54:10.036Z,10.70
2023-05-03T01:56:39.536Z,10.60
2023-05-03T01:59:07.697Z,10.60
2023-05-03T02:01:35.941Z,10.60
2023-05-03T02:04:04.604Z,10.60
2023-05-03T02:06:32.908Z,10.50
2023-05-03T02:09:01.315Z,10.50
2023-05-03T02:11:29.577Z,10.50
2023-05-03T02:13:59.174Z,10.50
2023-05-03T02:16:28.278Z,10.40
2023-05-03T02:18:59.848Z,10.40
2023-05-03T02:21:27.943Z,10.30
2023-05-03T02:23:56.141Z,10.30
2023-05-03T02:26:24.260Z,10.30
2023-05-03T02:28:52.509Z,10.20
2023-05-03T02:31:22.060Z,10.20
2023-05-03T02:33:50.221Z,10.10
2023-05-03T02:36:21.480Z,10.10
2023-05-03T02:38:52.185Z,10.10
2023-05-03T02:41:22.867Z,10.00
2023-05-03T02:43:51.158Z,10.00
2023-05-03T02:46:19.291Z,10.00
2023-05-03T02:48:48.835Z,10.00
2023-05-03T02:51:16.850Z,9.90
2023-05-03T02:53:46.690Z,9.90
2023-05-03T02:56:14.745Z,9.90
2023-05-03T02:58:46.288Z,9.90
2023-05-03T03:01:14.284Z,9.80
2023-05-03T03:03:43.048Z,9.80
2023-05-03T03:06:13.002Z,9.80
2023-05-03T03:08:41.134Z,9.70
2023-05-03T03:11:09.200Z,9.80
2023-05-03T03:13:39.639Z,9.70
2023-05-03T03:16:08.283Z,9.70
2023-05-03T03:18:36.663Z,9.60
2023-05-03T03:21:05.271Z,9.60
2023-05-03T03:23:34.735Z,9.60
2023-05-03T03:26:02.905Z,9.60
2023-05-03T03:28:30.890Z,9.50
2023-05-03T03:30:58.889Z,9.50
2023-05-03T03:33:27.000Z,9.50
2023-05-03T03:35:54.984Z,9.40
2023-05-03T03:38:23.357Z,9.40
2023-05-03T03:40:54.315Z,9.40
2023-05-03T03:43:22.453Z,9.30
2023-05-03T03:45:50.563Z,9.30
2023-05-03T03:48:18.639Z,9.30
2023-05-03T03:50:47.447Z,9.30
2023-05-03T03:53:15.860Z,9.30
2023-05-03T03:55:43.954Z,9.20
2023-05-03T03:58:13.646Z,9.20
2023-05-03T04:00:42.758Z,9.20
2023-05-03T04:03:11.000Z,9.20
2023-05-03T04:05:41.748Z,9.20
2023-05-03T04:08:10.115Z,9.10
2023-05-03T04:10:38.018Z,9.10
2023-05-03T04:13:06.592Z,9.10
2023-05-03T04:15:38.611Z,9.10
2023-05-03T04:18:06.920Z,9.10
2023-05-03T04:20:36.012Z,9.00
2023-05-03T04:23:05.262Z,9.00
2023-05-03T04:25:33.282Z,9.00
2023-05-03T04:28:01.410Z,9.00
2023-05-03T04:30:29.517Z,9.00
2023-05-03T04:33:01.429Z,8.90
2023-05-03T04:35:29.441Z,8.90
2023-05-03T04:37:57.725Z,8.90
2023-05-03T04:40:26.078Z,8.90
2023-05-03T04:42:54.353Z,8.80
2023-05-03T04:45:23.240Z,8.80
2023-05-03T04:47:51.638Z,8.80
2023-05-03T04:50:23.546Z,8.80
2023-05-03T04:52:51.625Z,8.80
2023-05-03T04:55:23.123Z,8.80
2023-05-03T04:57:51.248Z,8.70
2023-05-03T05:00:21.278Z,8.70
2023-05-03T05:02:49.933Z,8.70
2023-05-03T05:05:20.269Z,8.70
2023-05-03T05:07:52.770Z,8.70
2023-05-03T05:10:20.869Z,8.60
2023-05-03T05:12:48.914Z,8.60
2023-05-03T05:15:17.467Z,8.60
2023-05-03T05:17:48.421Z,8.60
2023-05-03T05:20:18.956Z,8.60
2023-05-03T05:22:47.225Z,8.60
2023-05-03T05:25:16.582Z,8.60
2023-05-03T05:27:44.821Z,8.70
2023-05-03T05:30:14.012Z,8.70
2023-05-03T05:32:42.163Z,8.60
2023-05-03T05:35:11.249Z,8.70
2023-05-03T05:37:39.303Z,8.70
2023-05-03T05:40:09.323Z,8.70
2023-05-03T05:42:43.107Z,8.70
2023-05-03T05:45:12.198Z,8.70
2023-05-03T05:47:40.400Z,8.70
2023-05-03T05:50:16.932Z,8.80
2023-05-03T05:52:46.129Z,8.80
2023-05-03T05:55:16.050Z,8.80
2023-05-03T05:57:46.104Z,8.80
2023-05-03T06:00:15.628Z,8.80
2023-05-03T06:02:46.439Z,8.80
2023-05-03T06:05:14.641Z,8.80
2023-05-03T06:07:42.784Z,8.90
2023-05-03T06:10:11.869Z,8.90
2023-05-03T06:12:39.959Z,8.90
2023-05-03T06:15:10.305Z,8.90
2023-05-03T06:17:38.316Z,8.90
2023-05-03T06:20:11.680Z,8.90
2023-05-03T06:22:39.924Z,9.00
2023-05-03T06:25:08.773Z,9.00
2023-05-03T06:27:37.118Z,9.00
2023-05-03T06:30:10.518Z,9.00
2023-05-03T06:32:40.196Z,9.00
2023-05-03T06:35:09.874Z,9.10
2023-05-03T06:37:38.007Z,9.10
2023-05-03T06:40:09.961Z,9.10
2023-05-03T06:42:37.959Z,9.20
2023-05-03T06:45:11.378Z,9.20
2023-05-03T06:47:40.377Z,9.30
2023-05-03T06:50:09.516Z,9.30
2023-05-03T06:52:37.609Z,9.40
2023-05-03T06:55:07.128Z,9.50
2023-05-03T06:57:35.175Z,9.50
2023-05-03T07:00:07.181Z,9.50
2023-05-03T07:02:37.368Z,9.60
2023-05-03T07:05:09.793Z,9.60
2023-05-03T07:07:37.889Z,9.60
2023-05-03T07:10:09.765Z,9.70
2023-05-03T07:12:37.886Z,9.80
2023-05-03T07:15:08.219Z,9.80
2023-05-03T07:17:46.517Z,9.90
2023-05-03T07:20:14.744Z,9.90
2023-05-03T07:22:42.820Z,10.00
2023-05-03T07:25:12.460Z,10.00
2023-05-03T07:27:40.685Z,10.10
2023-05-03T07:30:10.384Z,10.20
2023-05-03T07:32:38.460Z,10.20
2023-05-03T07:35:09.305Z,10.30
2023-05-03T07:37:38.690Z,10.30
2023-05-03T07:40:07.960Z,10.40
2023-05-03T07:42:38.321Z,10.40
2023-05-03T07:45:15.982Z,10.50
2023-05-03T07:47:44.320Z,10.50
2023-05-03T07:50:14.101Z,10.50
2023-05-03T07:52:43.388Z,10.60
2023-05-03T07:55:11.853Z,10.70
2023-05-03T07:57:39.856Z,10.80
2023-05-03T08:00:11.053Z,10.80
2023-05-03T08:02:43.467Z,10.90
2023-05-03T08:05:14.963Z,10.90
2023-05-03T08:07:44.371Z,11.00
2023-05-03T08:10:12.991Z,11.10
2023-05-03T08:12:41.384Z,11.10
2023-05-03T08:15:09.865Z,11.20
2023-05-03T08:17:42.509Z,11.20
2023-05-03T08:20:15.691Z,11.30
2023-05-03T08:22:46.394Z,11.40
2023-05-03T08:25:16.798Z,11.40
2023-05-03T08:27:44.776Z,11.50
2023-05-03T08:30:13.224Z,11.60
2023-05-03T08:32:42.169Z,11.60
2023-05-03T08:35:10.944Z,11.60
2023-05-03T08:37:41.557Z,11.70
2023-05-03T08:40:14.496Z,11.70
2023-05-03T08:42:43.819Z,11.80
2023-05-03T08:45:14.808Z,11.80
2023-05-03T08:47:46.639Z,11.80
2023-05-03T08:50:16.315Z,11.80
2023-05-03T08:52:45.922Z,11.90
2023-05-03T08:55:14.531Z,11.90
2023-05-03T08:57:43.035Z,12.00
2023-05-03T09:00:14.395Z,12.10
2023-05-03T09:02:42.923Z,12.10
2023-05-03T09:05:33.694Z,12.20
2023-05-03T09:08:04.983Z,12.30
2023-05-03T09:10:34.268Z,12.30
2023-05-03T09:13:03.743Z,12.40
2023-05-03T09:15:32.077Z,12.50
2023-05-03T09:18:15.807Z,12.50
2023-05-03T09:20:51.800Z,12.50
2023-05-03T09:23:34.136Z,12.50
2023-05-03T09:26:02.254Z,12.50
2023-05-03T09:28:30.992Z,12.60
2023-05-03T09:31:10.843Z,12.70
2023-05-03T09:33:40.502Z,12.80
2023-05-03T09:36:11.051Z,12.90
2023-05-03T09:38:40.709Z,12.90
2023-05-03T09:41:09.252Z,13.00
2023-05-03T09:43:37.938Z,12.90
2023-05-03T09:46:10.631Z,13.00
2023-05-03T09:48:39.501Z,13.10
2023-05-03T09:51:08.255Z,13.10
2023-05-03T09:53:38.318Z,13.20
2023-05-03T09:56:12.511Z,13.30
2023-05-03T09:58:41.439Z,13.40
2023-05-03T10:01:10.487Z,13.50
2023-05-03T10:03:42.040Z,13.60
2023-05-03T10:06:23.878Z,13.70
2023-05-03T10:08:55.190Z,13.80
2023-05-03T10:11:27.944Z,14.00
2023-05-03T10:13:56.814Z,13.90
2023-05-03T10:16:30.527Z,14.00
2023-05-03T10:19:07.740Z,14.10
2023-05-03T10:21:48.928Z,14.00
2023-05-03T10:24:17.241Z,14.00
2023-05-03T10:26:48.613Z,14.10
2023-05-03T10:29:49.136Z,14.20
2023-05-03T10:32:33.528Z,14.40
2023-05-03T10:35:06.003Z,14.50
2023-05-03T10:37:36.135Z,14.60
2023-05-03T10:40:11.479Z,14.70
2023-05-03T10:42:44.509Z,14.80
2023-05-03T10:45:22.341Z,14.90
2023-05-03T10:48:24.778Z,15.00
2023-05-03T10:50:53.480Z,15.10
2023-05-03T10:53:38.963Z,15.20
2023-05-03T10:56:11.278Z,15.20
2023-05-03T10:58:44.102Z,15.20
2023-05-03T11:01:14.371Z,15.30
2023-05-03T11:03:49.927Z,15.50
2023-05-03T11:06:36.712Z,15.50
2023-05-03T11:09:07.700Z,15.50
2023-05-03T11:11:39.377Z,15.50
2023-05-03T11:14:10.078Z,15.60
2023-05-03T11:16:41.149Z,15.70
2023-05-03T11:19:09.174Z,15.70
2023-05-03T11:21:37.613Z,15.80
2023-05-03T11:24:06.577Z,15.90
2023-05-03T11:26:37.464Z,16.00
2023-05-03T11:29:13.151Z,16.10
2023-05-03T11:31:43.924Z,16.20
2023-05-03T11:34:12.635Z,16.30
2023-05-03T11:36:42.225Z,16.40
2023-05-03T11:39:10.410Z,16.50
2023-05-03T11:41:39.099Z,16.60
2023-05-03T11:44:17.136Z,16.60
2023-05-03T11:46:49.123Z,16.70
2023-05-03T11:49:19.931Z,16.70
2023-05-03T11:51:51.623Z,16.70
2023-05-03T11:54:27.015Z,16.80
2023-05-03T11:56:58.277Z,17.00
2023-05-03T11:59:37.152Z,17.00
2023-05-03T12:02:10.721Z,17.20
2023-05-03T12:04:42.691Z,17.40
2023-05-03T12:07:14.622Z,17.40
2023-05-03T12:09:47.617Z,17.40
2023-05-03T12:12:25.313Z,17.50
2023-05-03T12:14:59.523Z,17.60
2023-05-03T12:17:42.862Z,17.70
2023-05-03T12:21:04.049Z,17.80
2023-05-03T12:23:09.541Z,17.90
2023-05-03T12:25:40.579Z,18.00
2023-05-03T12:28:20.464Z,18.10
2023-05-03T12:30:52.637Z,18.20
2023-05-03T12:33:23.415Z,18.30
2023-05-03T12:35:54.252Z,18.30
2023-05-03T12:38:24.195Z,18.30
2023-05-03T12:40:54.662Z,18.50
2023-05-03T12:43:23.015Z,18.60
2023-05-03T12:46:00.793Z,18.80
2023-05-03T12:48:41.447Z,18.80
2023-05-03T12:51:19.107Z,18.90
2023-05-03T12:53:54.320Z,18.90
2023-05-03T12:56:25.061Z,19.00
2023-05-03T12:59:14.881Z,19.00
2023-05-03T13:06:46.998Z,19.30
2023-05-03T13:09:20.567Z,19.40
2023-05-03T13:11:50.825Z,19.40
2023-05-03T13:14:18.998Z,19.50
2023-05-03T13:16:47.578Z,19.60
2023-05-03T13:19:17.360Z,19.60
2023-05-03T13:21:47.735Z,19.70
2023-05-03T13:24:15.839Z,19.70
2023-05-03T13:26:43.944Z,19.80
2023-05-03T13:29:11.941Z,19.80
2023-05-03T13:31:39.976Z,20.00
2023-05-03T13:34:07.954Z,20.00
2023-05-03T13:36:37.297Z,20.00
2023-05-03T13:39:11.617Z,20.00
2023-05-03T13:41:42.132Z,20.10
2023-05-03T13:44:11.626Z,20.20
2023-05-03T13:46:41.029Z,20.20
2023-05-03T13:49:10.233Z,20.00
2023-05-03T13:51:39.998Z,20.10
2023-05-03T13:54:08.938Z,20.20
2023-05-03T13:56:38.052Z,20.30
2023-05-03T13:59:09.816Z,20.40
2023-05-03T14:01:38.479Z,20.50
2023-05-03T14:04:07.217Z,20.60
2023-05-03T14:06:37.065Z,20.50
2023-05-03T14:09:10.846Z,20.50
2023-05-03T14:11:41.948Z,20.70
2023-05-03T14:14:10.162Z,20.80
2023-05-03T14:16:41.530Z,20.90
2023-05-03T14:19:11.944Z,21.00
2023-05-03T14:21:43.289Z,21.00
2023-05-03T14:24:12.697Z,21.00
2023-05-03T14:26:41.132Z,21.10
2023-05-03T14:29:09.327Z,21.20
2023-05-03T14:31:37.646Z,21.10
2023-05-03T14:34:08.306Z,21.10
2023-05-03T14:36:39.921Z,21.10
2023-05-03T14:39:08.030Z,21.20
2023-05-03T14:41:37.357Z,21.20
2023-05-03T14:44:08.957Z,21.20
2023-05-03T14:46:37.054Z,21.40
2023-05-03T14:49:05.175Z,21.40
2023-05-03T14:51:33.718Z,21.40
2023-05-03T14:54:02.143Z,21.50
2023-05-03T14:56:32.121Z,21.40
2023-05-03T14:59:01.919Z,21.40
2023-05-03T15:01:29.965Z,21.50
2023-05-03T15:03:58.510Z,21.40
2023-05-03T15:06:30.723Z,21.40
2023-05-03T15:08:59.655Z,21.40
2023-05-03T15:11:28.616Z,21.50
2023-05-03T15:13:56.887Z,21.50
2023-05-03T15:16:26.714Z,21.50
2023-05-03T15:18:55.827Z,21.60
2023-05-03T15:21:24.332Z,21.60
2023-05-03T15:23:54.093Z,21.60
2023-05-03T15:26:24.404Z,21.70
2023-05-03T15:28:52.448Z,21.70
2023-05-03T15:31:20.581Z,21.80
2023-05-03T15:33:50.376Z,21.80
2023-05-03T15:36:18.347Z,21.70
2023-05-03T15:38:46.883Z,21.80
2023-05-03T15:41:14.893Z,21.70
2023-05-03T15:43:43.726Z,21.70
2023-05-03T15:46:12.942Z,21.60
2023-05-03T15:48:41.192Z,21.60
2023-05-03T15:51:10.700Z,21.70
2023-05-03T15:53:41.290Z,21.70
2023-05-03T15:56:09.468Z,21.70
2023-05-03T15:58:37.937Z,21.60
2023-05-03T16:01:09.086Z,21.60
2023-05-03T16:03:37.082Z,21.60
2023-05-03T16:06:06.227Z,21.60
2023-05-03T16:08:35.873Z,21.60
2023-05-03T16:11:03.983Z,21.70
2023-05-03T16:13:32.149Z,21.70
2023-05-03T16:16:02.527Z,21.50
2023-05-03T16:18:30.771Z,21.60
2023-05-03T16:20:58.804Z,21.50
2023-05-03T16:23:26.881Z,21.50
2023-05-03T16:25:56.661Z,21.50
2023-05-03T16:28:24.865Z,21.60
2023-05-03T16:30:53.138Z,21.50
2023-05-03T16:33:21.475Z,21.50
2023-05-03T16:35:50.014Z,21.40
2023-05-03T16:38:18.267Z,21.40
2023-05-03T16:40:46.372Z,21.40
2023-05-03T16:43:18.404Z,21.30
2023-05-03T16:45:46.470Z,21.30
2023-05-03T16:48:15.380Z,21.40
2023-05-03T16:50:44.276Z,21.40
2023-05-03T16:53:13.455Z,21.30
2023-05-03T16:55:41.513Z,21.30
2023-05-03T16:58:09.553Z,21.20
2023-05-03T17:00:40.217Z,21.20
2023-05-03T17:03:08.893Z,21.10
2023-05-03T17:05:40.513Z,21.00
2023-05-03T17:08:09.158Z,21.00
2023-05-03T17:10:38.608Z,21.00
2023-05-03T17:13:09.476Z,20.90
2023-05-03T17:15:38.480Z,20.90
2023-05-03T17:18:08.681Z,20.90
2023-05-03T17:20:37.076Z,20.90
2023-05-03T17:23:05.146Z,20.90
2023-05-03T17:25:33.559Z,20.80
2023-05-03T17:28:01.647Z,20.70
2023-05-03T17:30:29.891Z,20.70
2023-05-03T17:32:57.890Z,20.60
2023-05-03T17:35:27.450Z,20.60
2023-05-03T17:37:56.950Z,20.50
2023-05-03T17:40:25.271Z,20.50
2023-05-03T17:42:53.375Z,20.40
2023-05-03T17:45:21.559Z,20.30
2023-05-03T17:47:49.894Z,20.30
2023-05-03T17:50:18.176Z,20.20
2023-05-03T17:52:47.712Z,20.20
2023-05-03T17:55:18.042Z,20.10
2023-05-03T17:57:46.316Z,20.00
2023-05-03T18:00:15.982Z,20.00
2023-05-03T18:02:45.637Z,20.00
2023-05-03T18:05:16.145Z,19.90
2023-05-03T18:07:44.221Z,19.80
2023-05-03T18:10:17.359Z,19.80
2023-05-03T18:12:45.360Z,19.70
2023-05-03T18:15:15.316Z,19.70
2023-05-03T18:17:43.822Z,19.60
2023-05-03T18:20:13.528Z,19.50
2023-05-03T18:22:42.223Z,19.50
2023-05-03T18:25:14.595Z,19.50
2023-05-03T18:27:42.775Z,19.40
2023-05-03T18:30:12.066Z,19.40
2023-05-03T18:32:40.104Z,19.30
2023-05-03T18:35:09.085Z,19.20
2023-05-03T18:37:37.085Z,19.10
2023-05-03T18:40:09.002Z,19.10
2023-05-03T18:42:38.422Z,19.00
2023-05-03T18:45:07.044Z,19.00
2023-05-03T18:47:34.998Z,18.90
2023-05-03T18:50:07.389Z,18.80
2023-05-03T18:52:35.543Z,18.70
2023-05-03T18:55:03.815Z,18.70
2023-05-03T18:57:31.750Z,18.60
2023-05-03T19:00:01.783Z,18.60
2023-05-03T19:02:31.541Z,18.50
2023-05-03T19:05:00.647Z,18.40
2023-05-03T19:07:29.113Z,18.40
2023-05-03T19:09:57.713Z,18.30
2023-05-03T19:12:25.824Z,18.20
2023-05-03T19:14:54.014Z,18.20
2023-05-03T19:17:23.500Z,18.20
2023-05-03T19:19:51.566Z,18.10
2023-05-03T19:22:19.534Z,18.00
2023-05-03T19:24:48.039Z,18.00
2023-05-03T19:27:16.918Z,17.90
2023-05-03T19:29:46.053Z,17.80
2023-05-03T19:32:14.351Z,17.80
2023-05-03T19:34:43.808Z,17.70
2023-05-03T19:37:15.981Z,17.70
2023-05-03T19:39:46.743Z,17.60
2023-05-03T19:42:15.151Z,17.60
2023-05-03T19:44:43.051Z,17.50
2023-05-03T19:47:11.020Z,17.50
2023-05-03T19:49:39.284Z,17.40
2023-05-03T19:52:10.183Z,17.30
2023-05-03T19:54:38.647Z,17.30
2023-05-03T19:57:07.308Z,17.30
2023-05-03T19:59:35.944Z,17.20
2023-05-03T20:02:04.634Z,17.20
2023-05-03T20:04:32.785Z,17.10
2023-05-03T20:07:03.937Z,17.10
2023-05-03T20:09:33.147Z,17.00
2023-05-03T20:12:02.359Z,17.00
2023-05-03T20:14:30.534Z,16.90
2023-05-03T20:16:58.611Z,16.80
2023-05-03T20:19:28.504Z,16.80
2023-05-03T20:21:56.547Z,16.70
2023-05-03T20:24:24.688Z,16.70
2023-05-03T20:26:54.634Z,16.60
2023-05-03T20:29:22.780Z,16.60
2023-05-03T20:31:53.499Z,16.60
2023-05-03T20:34:22.918Z,16.50
2023-05-03T20:36:52.042Z,16.40
2023-05-03T20:39:21.207Z,16.40
2023-05-03T20:41:49.459Z,16.30
2023-05-03T20:44:21.871Z,16.30
2023-05-03T20:46:49.878Z,16.30
2023-05-03T20:49:19.751Z,16.20
2023-05-03T20:51:48.343Z,16.10
2023-05-03T20:54:18.684Z,16.10
2023-05-03T20:56:49.227Z,16.00
2023-05-03T20:59:18.667Z,16.00
2023-05-03T21:01:46.670Z,16.00
2023-05-03T21:04:14.904Z,15.90
2023-05-03T21:06:45.108Z,15.90
2023-05-03T21:09:13.680Z,15.80
2023-05-03T21:11:42.446Z,15.80
2023-05-03T21:14:11.794Z,15.70
2023-05-03T21:16:41.378Z,15.70
2023-05-03T21:19:09.583Z,15.60
2023-05-03T21:21:37.999Z,15.60
2023-05-03T21:24:09.580Z,15.60
2023-05-03T21:26:37.700Z,15.50
2023-05-03T21:29:06.336Z,15.50
2023-05-03T21:31:37.720Z,15.50
2023-05-03T21:34:07.091Z,15.40
2023-05-03T21:36:35.369Z,15.40
2023-05-03T21:39:04.043Z,15.40
2023-05-03T21:41:32.584Z,15.30
2023-05-03T21:44:00.919Z,15.20
2023-05-03T21:46:28.964Z,15.20
2023-05-03T21:48:57.190Z,15.10
2023-05-03T21:51:26.611Z,15.10
2023-05-03T21:53:55.074Z,15.00
2023-05-03T21:56:23.144Z,15.00
2023-05-03T21:58:52.452Z,15.00
2023-05-03T22:01:21.715Z,14.90
2023-05-03T22:03:50.126Z,14.90
2023-05-03T22:06:18.311Z,14.90
2023-05-03T22:08:47.894Z,14.80
2023-05-03T22:11:15.892Z,14.80
2023-05-03T22:13:54.501Z,14.70
2023-05-03T22:16:27.720Z,14.70
2023-05-03T22:18:57.146Z,14.70
2023-05-03T22:21:25.513Z,14.70
2023-05-03T22:23:54.769Z,14.60
2023-05-03T22:26:26.175Z,14.60
2023-05-03T22:28:55.177Z,14.60
2023-05-03T22:31:23.483Z,14.50
2023-05-03T22:33:51.523Z,14.50
2023-05-03T22:36:19.689Z,14.40
2023-05-03T22:38:47.635Z,14.40
2023-05-03T22:41:17.041Z,14.40
2023-05-03T22:43:45.038Z,14.30
2023-05-03T22:46:13.115Z,14.30
2023-05-03T22:48:41.297Z,14.30
2023-05-03T22:51:09.497Z,14.30
2023-05-03T22:53:37.697Z,14.20
2023-05-03T22:56:07.690Z,14.20
2023-05-03T22:58:37.407Z,14.20
2023-05-03T23:01:10.930Z,14.10
2023-05-03T23:03:42.673Z,14.10
2023-05-03T23:06:11.375Z,14.00
2023-05-03T23:08:39.353Z,14.00
2023-05-03T23:11:09.386Z,14.00
2023-05-03T23:13:42.232Z,13.90
2023-05-03T23:16:10.892Z,13.90
2023-05-03T23:18:39.380Z,13.80
2023-05-03T23:21:07.474Z,13.80
2023-05-03T23:23:35.617Z,13.80
2023-05-03T23:26:06.653Z,13.80
2023-05-03T23:28:35.508Z,13.70
2023-05-03T23:31:08.528Z,13.70
2023-05-03T23:33:36.797Z,13.60
2023-05-03T23:36:05.666Z,13.60
2023-05-03T23:38:33.737Z,13.60
2023-05-03T23:41:02.270Z,13.50
2023-05-03T23:43:30.326Z,13.50
2023-05-03T23:45:59.662Z,13.40
2023-05-03T23:48:29.153Z,13.40
2023-05-03T23:50:57.158Z,13.40
2023-05-03T23:53:25.749Z,13.30
2023-05-03T23:55:53.708Z,13.30
2023-05-03T23:58:21.875Z,13.20
